createdAt,value
2019-04-21T00:01:51.080Z,13.80
2019-04-21T00:04:36.108Z,16.70
2019-04-21T00:07:16.076Z,13.83
2019-04-21T00:09:50.701Z,31.00
2019-04-21T00:14:39.686Z,14.73
2019-04-21T00:17:06.150Z,17.50
2019-04-21T00:19:43.008Z,13.50
2019-04-21T00:22:26.877Z,15.43
2019-04-21T00:25:01.057Z,11.13
2019-04-21T00:27:34.284Z,17.13
2019-04-21T00:30:10.905Z,14.47
2019-04-21T00:32:31.730Z,11.93
2019-04-21T00:35:02.532Z,10.00
2019-04-21T00:37:45.164Z,14.53
2019-04-21T00:40:22.532Z,16.40
2019-04-21T00:42:51.874Z,15.67
2019-04-21T00:45:22.275Z,14.70
2019-04-21T00:47:53.134Z,24.53
2019-04-21T00:50:38.022Z,12.23
2019-04-21T00:53:19.714Z,11.77
2019-04-21T00:55:51.395Z,12.33
2019-04-21T00:58:22.452Z,13.23
2019-04-21T01:00:51.124Z,12.33
2019-04-21T01:03:25.838Z,11.70
2019-04-21T01:06:08.241Z,12.80
2019-04-21T01:08:28.234Z,13.20
2019-04-21T01:10:51.549Z,13.63
2019-04-21T01:13:33.333Z,12.37
2019-04-21T01:16:05.610Z,12.50
2019-04-21T01:18:33.135Z,16.80
2019-04-21T01:20:45.065Z,17.97
2019-04-21T01:23:15.184Z,14.57
2019-04-21T01:26:00.784Z,11.33
2019-04-21T01:28:35.928Z,14.53
2019-04-21T01:31:11.940Z,13.53
2019-04-21T01:33:44.695Z,12.60
2019-04-21T01:36:08.863Z,13.40
2019-04-21T01:38:49.274Z,13.37
2019-04-21T01:41:20.963Z,13.40
2019-04-21T01:43:46.000Z,13.07
2019-04-21T01:46:16.395Z,15.90
2019-04-21T01:48:44.329Z,14.93
2019-04-21T01:51:18.895Z,15.13
2019-04-21T01:54:04.005Z,11.40
2019-04-21T01:56:51.261Z,17.80
2019-04-21T01:59:12.771Z,14.03
2019-04-21T02:02:00.132Z,14.57
2019-04-21T02:04:37.175Z,12.80
2019-04-21T02:07:02.838Z,10.90
2019-04-21T02:09:37.992Z,14.80
2019-04-21T02:12:15.799Z,13.30
2019-04-21T02:14:50.357Z,15.80
2019-04-21T02:17:17.322Z,17.50
2019-04-21T02:19:41.039Z,14.83
2019-04-21T02:22:19.176Z,19.50
2019-04-21T02:24:56.640Z,17.57
2019-04-21T02:27:24.951Z,15.53
2019-04-21T02:29:55.890Z,17.80
2019-04-21T02:32:38.944Z,16.57
2019-04-21T02:35:12.384Z,16.40
2019-04-21T02:37:46.908Z,16.60
2019-04-21T02:42:47.963Z,16.53
2019-04-21T02:45:19.113Z,17.10
2019-04-21T02:48:03.939Z,17.37
2019-04-21T02:50:19.035Z,14.43
2019-04-21T02:58:01.986Z,19.43
2019-04-21T03:00:32.971Z,19.70
2019-04-21T03:03:13.287Z,18.80
2019-04-21T03:08:38.519Z,16.30
2019-04-21T03:11:05.285Z,18.17
2019-04-21T03:16:09.726Z,18.57
2019-04-21T03:18:48.558Z,22.03
2019-04-21T03:23:56.290Z,17.27
2019-04-21T03:28:37.057Z,18.33
2019-04-21T03:31:35.996Z,16.63
2019-04-21T03:34:14.846Z,22.90
2019-04-21T03:38:40.567Z,21.87
2019-04-21T03:41:22.130Z,20.67
2019-04-21T03:43:50.625Z,18.27
2019-04-21T03:46:24.709Z,21.37
2019-04-21T03:49:02.233Z,17.70
2019-04-21T03:53:57.551Z,20.10
2019-04-21T04:01:38.033Z,19.23
2019-04-21T04:04:15.465Z,17.93
2019-04-21T04:06:45.072Z,24.87
2019-04-21T04:14:33.429Z,21.33
2019-04-21T04:17:11.850Z,21.50
2019-04-21T04:19:40.287Z,21.07
2019-04-21T04:22:15.400Z,23.60
2019-04-21T04:24:38.931Z,19.03
2019-04-21T04:27:20.983Z,18.70
2019-04-21T04:29:39.812Z,19.47
2019-04-21T04:32:03.657Z,19.83
2019-04-21T04:37:26.337Z,19.90
2019-04-21T04:39:48.734Z,21.83
2019-04-21T04:49:54.907Z,18.20
2019-04-21T04:55:06.499Z,19.57
2019-04-21T05:00:19.554Z,20.00
2019-04-21T05:02:46.308Z,22.93
2019-04-21T05:05:19.090Z,14.80
2019-04-21T05:07:50.528Z,19.80
2019-04-21T05:10:36.788Z,22.90
2019-04-21T05:15:16.233Z,15.73
2019-04-21T05:20:49.250Z,14.33
2019-04-21T05:22:56.294Z,19.00
2019-04-21T05:25:18.519Z,18.03
2019-04-21T05:27:47.041Z,15.03
2019-04-21T05:30:40.386Z,16.67
2019-04-21T05:33:34.463Z,17.13
2019-04-21T05:36:15.775Z,15.43
2019-04-21T05:38:42.420Z,17.90
2019-04-21T05:41:10.029Z,16.17
2019-04-21T05:43:54.518Z,15.00
2019-04-21T05:46:25.442Z,15.33
2019-04-21T05:48:58.736Z,15.23
2019-04-21T05:51:25.309Z,14.50
2019-04-21T05:54:12.982Z,14.87
2019-04-21T05:56:35.444Z,16.10
2019-04-21T05:59:10.308Z,14.60
2019-04-21T06:01:40.884Z,13.93
2019-04-21T06:04:14.950Z,13.63
2019-04-21T06:06:48.109Z,12.43
2019-04-21T06:09:16.054Z,160.73
2019-04-21T06:11:45.779Z,534.23
2019-04-21T06:14:20.372Z,129.80
2019-04-21T06:19:23.648Z,74.77
2019-04-21T06:21:51.183Z,45.23
2019-04-21T06:24:26.974Z,39.37
2019-04-21T06:29:30.050Z,57.40
2019-04-21T06:34:41.079Z,55.27
2019-04-21T06:37:34.737Z,61.93
2019-04-21T06:39:58.583Z,52.77
2019-04-21T06:42:16.188Z,45.23
2019-04-21T06:44:54.117Z,48.93
2019-04-21T06:47:24.698Z,44.40
2019-04-21T06:49:50.155Z,43.77
2019-04-21T06:52:43.114Z,38.63
2019-04-21T06:54:54.942Z,43.03
2019-04-21T06:57:32.159Z,34.53
2019-04-21T06:59:52.626Z,30.70
2019-04-21T07:05:00.442Z,28.43
2019-04-21T07:07:27.874Z,26.50
2019-04-21T07:10:10.352Z,27.20
2019-04-21T07:12:37.063Z,22.43
2019-04-21T07:15:03.412Z,23.37
2019-04-21T07:17:51.208Z,24.33
2019-04-21T07:20:12.482Z,22.27
2019-04-21T07:22:44.414Z,20.73
2019-04-21T07:25:15.380Z,16.20
2019-04-21T07:27:50.743Z,18.87
2019-04-21T07:30:19.276Z,19.10
2019-04-21T07:35:20.826Z,16.70
2019-04-21T07:37:53.864Z,14.53
2019-04-21T07:40:13.478Z,14.20
2019-04-21T07:42:47.757Z,11.47
2019-04-21T07:45:22.413Z,11.50
2019-04-21T07:47:55.213Z,14.90
2019-04-21T07:50:31.850Z,12.07
2019-04-21T07:53:19.514Z,12.70
2019-04-21T07:58:10.777Z,11.27
2019-04-21T08:03:16.118Z,26.50
2019-04-21T08:05:45.821Z,24.00
2019-04-21T08:08:17.908Z,18.93
2019-04-21T08:10:52.263Z,18.63
2019-04-21T08:13:32.776Z,22.33
2019-04-21T08:15:54.261Z,14.47
2019-04-21T08:18:28.736Z,17.60
2019-04-21T08:20:53.385Z,14.40
2019-04-21T08:23:31.884Z,12.83
2019-04-21T08:28:35.080Z,12.57
2019-04-21T08:31:11.493Z,10.60
2019-04-21T08:33:38.465Z,12.03
2019-04-21T08:38:40.208Z,12.30
2019-04-21T08:48:52.789Z,7.50
2019-04-21T08:51:34.024Z,6.80
2019-04-21T08:53:59.250Z,8.00
2019-04-21T08:56:41.650Z,6.77
2019-04-21T08:59:31.388Z,6.23
2019-04-21T09:02:07.667Z,5.40
2019-04-21T09:04:39.638Z,6.43
2019-04-21T09:07:14.722Z,7.93
2019-04-21T09:09:44.400Z,6.37
2019-04-21T09:12:16.161Z,5.63
2019-04-21T09:14:50.676Z,8.23
2019-04-21T09:17:12.092Z,6.37
2019-04-21T09:19:58.010Z,7.20
2019-04-21T09:22:16.787Z,6.40
2019-04-21T09:25:16.293Z,5.77
2019-04-21T09:27:28.022Z,5.10
2019-04-21T09:29:49.208Z,5.80
2019-04-21T09:32:18.326Z,5.13
2019-04-21T09:34:45.532Z,5.67
2019-04-21T09:37:27.808Z,6.70
2019-04-21T09:39:50.264Z,4.87
2019-04-21T09:42:19.801Z,5.40
2019-04-21T09:44:53.821Z,10.60
2019-04-21T09:47:24.520Z,17.80
2019-04-21T09:49:54.307Z,8.43
2019-04-21T09:52:30.152Z,12.77
2019-04-21T09:55:04.261Z,12.20
2019-04-21T09:57:40.341Z,14.50
2019-04-21T10:00:05.835Z,8.50
2019-04-21T10:02:38.534Z,8.27
2019-04-21T10:05:03.224Z,7.27
2019-04-21T10:07:37.078Z,6.53
2019-04-21T10:10:08.172Z,7.07
2019-04-21T10:12:38.704Z,7.60
2019-04-21T10:15:10.536Z,5.13
2019-04-21T10:17:48.165Z,7.70
2019-04-21T10:20:20.105Z,6.20
2019-04-21T10:22:50.956Z,5.17
2019-04-21T10:25:21.282Z,6.73
2019-04-21T10:27:52.756Z,5.33
2019-04-21T10:30:24.476Z,5.70
2019-04-21T10:32:56.435Z,6.23
2019-04-21T10:35:27.231Z,6.40
2019-04-21T10:38:09.270Z,12.43
2019-04-21T10:40:32.118Z,5.47
2019-04-21T10:43:00.823Z,5.13
2019-04-21T10:45:31.010Z,5.80
2019-04-21T10:48:01.264Z,5.27
2019-04-21T10:50:31.447Z,6.13
2019-04-21T10:53:04.837Z,6.27
2019-04-21T10:55:48.583Z,6.90
2019-04-21T10:58:08.713Z,6.13
2019-04-21T11:00:41.931Z,5.80
2019-04-21T11:03:30.921Z,6.67
2019-04-21T11:06:03.220Z,11.40
2019-04-21T11:08:41.571Z,7.50
2019-04-21T11:11:09.923Z,7.37
2019-04-21T11:13:40.951Z,8.57
2019-04-21T11:16:11.282Z,7.33
2019-04-21T11:18:42.094Z,12.00
2019-04-21T11:21:13.253Z,7.10
2019-04-21T11:23:43.880Z,7.80
2019-04-21T11:26:15.978Z,8.73
2019-04-21T11:28:47.088Z,9.10
2019-04-21T11:31:18.687Z,7.03
2019-04-21T11:33:49.294Z,7.57
2019-04-21T11:36:19.568Z,7.60
2019-04-21T11:39:07.247Z,6.37
2019-04-21T11:41:23.823Z,6.63
2019-04-21T11:43:57.092Z,7.40
2019-04-21T11:46:28.570Z,5.93
2019-04-21T11:49:00.080Z,7.50
2019-04-21T11:51:31.012Z,9.30
2019-04-21T11:54:01.718Z,8.40
2019-04-21T11:56:32.748Z,6.37
2019-04-21T11:59:03.829Z,7.80
2019-04-21T12:01:35.904Z,6.37
2019-04-21T12:04:07.504Z,6.60
2019-04-21T12:06:43.079Z,7.07
2019-04-21T12:09:10.059Z,6.40
2019-04-21T12:11:41.349Z,7.67
2019-04-21T12:14:12.066Z,8.50
2019-04-21T12:16:43.281Z,7.47
2019-04-21T12:19:14.579Z,8.80
2019-04-21T12:22:00.379Z,7.90
2019-04-21T12:24:19.417Z,9.90
2019-04-21T12:26:49.793Z,7.30
2019-04-21T12:29:20.846Z,7.20
2019-04-21T12:32:05.626Z,9.03
2019-04-21T12:34:36.251Z,7.00
2019-04-21T12:37:06.716Z,7.13
2019-04-21T12:39:38.650Z,7.17
2019-04-21T12:42:09.097Z,7.40
2019-04-21T12:44:43.327Z,7.00
2019-04-21T12:47:14.147Z,7.33
2019-04-21T12:49:45.561Z,9.50
2019-04-21T12:52:15.927Z,7.40
2019-04-21T12:54:47.914Z,9.30
2019-04-21T12:57:19.224Z,6.77
2019-04-21T12:59:50.837Z,7.73
2019-04-21T13:02:21.951Z,7.57
2019-04-21T13:04:53.021Z,8.00
2019-04-21T13:07:25.766Z,7.40
2019-04-21T13:09:55.922Z,8.60
2019-04-21T13:12:26.924Z,9.20
2019-04-21T13:15:02.502Z,8.90
2019-04-21T13:17:33.073Z,13.10
2019-04-21T13:20:05.342Z,10.07
2019-04-21T13:22:37.516Z,8.03
2019-04-21T13:25:09.605Z,14.57
2019-04-21T13:27:40.863Z,16.40
2019-04-21T13:30:14.546Z,16.97
2019-04-21T13:32:45.210Z,16.67
2019-04-21T13:35:17.098Z,18.60
2019-04-21T13:37:49.311Z,13.03
2019-04-21T13:40:45.100Z,20.57
2019-04-21T13:43:04.099Z,36.00
2019-04-21T13:45:34.291Z,215.63
2019-04-21T13:48:08.318Z,245.53
2019-04-21T13:50:39.452Z,169.03
2019-04-21T13:53:09.788Z,107.40
2019-04-21T13:55:40.735Z,97.30
2019-04-21T13:58:14.593Z,77.40
2019-04-21T14:00:45.608Z,67.80
2019-04-21T14:03:16.781Z,63.30
2019-04-21T14:05:48.536Z,60.70
2019-04-21T14:08:19.011Z,47.10
2019-04-21T14:10:49.349Z,48.37
2019-04-21T14:13:20.413Z,48.87
2019-04-21T14:15:51.827Z,43.47
2019-04-21T14:18:24.633Z,41.70
2019-04-21T14:20:55.488Z,35.37
2019-04-21T14:23:34.445Z,35.73
2019-04-21T14:25:57.715Z,35.43
2019-04-21T14:28:28.231Z,28.30
2019-04-21T14:30:58.717Z,27.40
2019-04-21T14:33:29.783Z,29.07
2019-04-21T14:36:00.985Z,25.47
2019-04-21T14:38:32.359Z,28.13
2019-04-21T14:41:03.972Z,21.67
2019-04-21T14:43:34.394Z,22.20
2019-04-21T14:46:09.426Z,21.13
2019-04-21T14:48:57.195Z,15.33
2019-04-21T14:51:29.356Z,21.00
2019-04-21T14:54:08.020Z,17.90
2019-04-21T14:56:39.566Z,21.03
2019-04-21T14:59:10.943Z,16.60
2019-04-21T15:01:41.926Z,17.53
2019-04-21T15:04:15.330Z,16.20
2019-04-21T15:06:45.301Z,14.10
2019-04-21T15:09:15.782Z,18.13
2019-04-21T15:11:47.617Z,16.53
2019-04-21T15:14:17.881Z,14.70
2019-04-21T15:16:49.039Z,13.43
2019-04-21T15:19:20.313Z,13.77
2019-04-21T15:21:52.235Z,12.90
2019-04-21T15:24:24.374Z,21.37
2019-04-21T15:26:54.808Z,14.30
2019-04-21T15:29:26.646Z,12.53
2019-04-21T15:31:58.706Z,12.37
2019-04-21T15:34:29.874Z,13.77
2019-04-21T15:37:01.896Z,15.40
2019-04-21T15:39:32.105Z,10.70
2019-04-21T15:42:02.800Z,10.83
2019-04-21T15:44:34.542Z,13.10
2019-04-21T15:47:06.129Z,13.07
2019-04-21T15:50:01.128Z,12.03
2019-04-21T15:52:27.929Z,9.60
2019-04-21T15:55:00.868Z,9.30
2019-04-21T15:57:35.809Z,12.43
2019-04-21T16:00:13.931Z,16.77
2019-04-21T16:02:46.636Z,8.97
2019-04-21T16:05:17.225Z,10.47
2019-04-21T16:07:47.946Z,10.97
2019-04-21T16:10:30.938Z,13.20
2019-04-21T16:12:52.024Z,15.03
2019-04-21T16:15:22.943Z,13.57
2019-04-21T16:17:53.350Z,11.83
2019-04-21T16:20:27.925Z,23.20
2019-04-21T16:22:57.944Z,30.27
2019-04-21T16:25:28.687Z,29.50
2019-04-21T16:27:59.474Z,28.73
2019-04-21T16:30:30.831Z,23.40
2019-04-21T16:33:01.966Z,21.00
2019-04-21T16:35:33.893Z,18.97
2019-04-21T16:38:05.928Z,16.73
2019-04-21T16:40:46.290Z,17.20
2019-04-21T16:43:08.162Z,18.37
2019-04-21T16:45:39.110Z,16.80
2019-04-21T16:48:09.587Z,16.77
2019-04-21T16:50:41.425Z,15.90
2019-04-21T16:53:17.684Z,12.93
2019-04-21T16:55:53.111Z,11.80
2019-04-21T16:58:29.074Z,10.63
2019-04-21T17:01:12.748Z,11.17
2019-04-21T17:03:39.859Z,8.00
2019-04-21T17:06:11.152Z,9.13
2019-04-21T17:08:42.931Z,13.13
2019-04-21T17:11:19.413Z,9.77
2019-04-21T17:13:45.756Z,7.43
2019-04-21T17:16:43.459Z,8.70
2019-04-21T17:18:57.398Z,13.07
2019-04-21T17:21:19.358Z,12.53
2019-04-21T17:23:50.533Z,12.07
2019-04-21T17:26:21.317Z,7.90
2019-04-21T17:28:52.331Z,11.90
2019-04-21T17:31:22.517Z,8.30
2019-04-21T17:34:00.120Z,7.97
2019-04-21T17:36:25.179Z,9.10
2019-04-21T17:38:56.127Z,9.13
2019-04-21T17:41:33.994Z,8.67
2019-04-21T17:43:58.281Z,9.53
2019-04-21T17:46:38.843Z,12.40
2019-04-21T17:49:01.135Z,23.33
2019-04-21T17:51:39.448Z,24.23
2019-04-21T17:54:30.197Z,23.47
2019-04-21T17:57:11.249Z,19.30
2019-04-21T17:59:50.698Z,22.47
2019-04-21T18:02:10.982Z,14.73
2019-04-21T18:04:49.261Z,13.70
2019-04-21T18:07:15.210Z,14.83
2019-04-21T18:10:00.474Z,12.47
2019-04-21T18:12:24.950Z,12.53
2019-04-21T18:14:53.014Z,13.73
2019-04-21T18:17:14.512Z,32.50
2019-04-21T18:19:47.486Z,35.53
2019-04-21T18:22:34.779Z,33.10
2019-04-21T18:25:06.693Z,48.33
2019-04-21T18:27:34.646Z,35.70
2019-04-21T18:30:17.956Z,31.40
2019-04-21T18:32:48.428Z,28.73
2019-04-21T18:35:20.852Z,25.57
2019-04-21T18:38:04.562Z,23.53
2019-04-21T18:40:30.866Z,21.80
2019-04-21T18:43:38.801Z,23.20
2019-04-21T18:46:06.990Z,19.97
2019-04-21T18:48:27.437Z,15.60
2019-04-21T18:51:02.833Z,17.40
2019-04-21T18:53:40.971Z,12.50
2019-04-21T18:56:05.556Z,22.33
2019-04-21T18:58:32.556Z,17.90
2019-04-21T19:01:10.552Z,14.57
2019-04-21T19:03:41.101Z,14.23
2019-04-21T19:06:12.822Z,13.07
2019-04-21T19:08:59.770Z,17.33
2019-04-21T19:11:46.718Z,12.90
2019-04-21T19:14:29.035Z,13.80
2019-04-21T19:21:55.821Z,12.33
2019-04-21T19:24:29.442Z,11.33
2019-04-21T19:26:58.782Z,11.97
2019-04-21T19:29:29.754Z,13.83
2019-04-21T19:32:05.495Z,10.50
2019-04-21T19:34:22.422Z,11.50
2019-04-21T19:36:55.795Z,11.47
2019-04-21T19:39:34.997Z,12.27
2019-04-21T19:42:02.981Z,10.00
2019-04-21T19:44:42.304Z,12.07
2019-04-21T19:47:16.856Z,10.40
2019-04-21T19:49:51.307Z,11.77
2019-04-21T19:52:05.531Z,10.13
2019-04-21T19:54:35.833Z,14.63
2019-04-21T19:57:02.822Z,13.47
2019-04-21T19:59:40.528Z,15.10
2019-04-21T20:02:06.774Z,15.03
2019-04-21T20:04:43.232Z,14.10
2019-04-21T20:07:23.203Z,12.90
2019-04-21T20:09:57.505Z,13.83
2019-04-21T20:12:36.926Z,13.20
2019-04-21T20:15:04.952Z,14.80
2019-04-21T20:17:35.072Z,16.13
2019-04-21T20:19:47.863Z,15.57
2019-04-21T20:22:18.891Z,17.43
2019-04-21T20:24:53.904Z,12.90
2019-04-21T20:27:36.214Z,19.77
2019-04-21T20:30:07.097Z,13.63
2019-04-21T20:32:42.690Z,14.10
2019-04-21T20:35:14.362Z,15.63
2019-04-21T20:37:42.166Z,13.23
2019-04-21T20:40:04.351Z,13.43
2019-04-21T20:42:42.655Z,16.70
2019-04-21T20:47:39.382Z,10.90
2019-04-21T20:50:23.273Z,12.53
2019-04-21T20:53:01.315Z,8.97
2019-04-21T20:55:22.350Z,12.03
2019-04-21T20:57:54.968Z,11.73
2019-04-21T21:00:31.786Z,11.60
2019-04-21T21:03:07.076Z,15.00
2019-04-21T21:05:30.351Z,11.90
2019-04-21T21:08:13.655Z,12.57
2019-04-21T21:10:36.895Z,13.93
2019-04-21T21:13:22.715Z,11.20
2019-04-21T21:15:50.131Z,11.83
2019-04-21T21:18:26.261Z,13.27
2019-04-21T21:20:49.409Z,10.70
2019-04-21T21:23:11.789Z,12.33
2019-04-21T21:25:52.978Z,10.50
2019-04-21T21:28:10.126Z,13.03
2019-04-21T21:30:47.015Z,8.80
2019-04-21T21:33:24.720Z,10.57
2019-04-21T21:35:50.122Z,11.53
2019-04-21T21:38:25.560Z,13.00
2019-04-21T21:40:54.707Z,8.70
2019-04-21T21:43:17.571Z,11.77
2019-04-21T21:45:50.068Z,8.07
2019-04-21T21:48:36.687Z,18.50
2019-04-21T21:50:56.654Z,10.43
2019-04-21T21:53:23.020Z,12.07
2019-04-21T21:55:51.031Z,12.50
2019-04-21T21:58:27.490Z,9.90
2019-04-21T22:00:58.986Z,8.93
2019-04-21T22:03:31.848Z,11.60
2019-04-21T22:06:06.143Z,10.30
2019-04-21T22:08:30.483Z,9.00
2019-04-21T22:11:01.418Z,9.07
2019-04-21T22:13:38.520Z,10.33
2019-04-21T22:16:08.887Z,9.77
2019-04-21T22:18:56.798Z,9.40
2019-04-21T22:21:18.752Z,11.53
2019-04-21T22:23:47.558Z,8.57
2019-04-21T22:26:11.342Z,10.00
2019-04-21T22:28:41.157Z,8.90
2019-04-21T22:31:14.832Z,11.27
2019-04-21T22:33:48.326Z,10.73
2019-04-21T22:36:26.755Z,8.40
2019-04-21T22:39:01.536Z,9.33
2019-04-21T22:41:26.573Z,9.10
2019-04-21T22:43:51.765Z,9.63
2019-04-21T22:46:20.543Z,8.47
2019-04-21T22:48:53.172Z,12.00
2019-04-21T22:51:30.216Z,8.17
2019-04-21T22:53:56.140Z,9.90
2019-04-21T22:56:30.081Z,9.27
2019-04-21T22:59:04.286Z,8.50
2019-04-21T23:01:40.546Z,9.17
2019-04-21T23:04:04.780Z,11.50
2019-04-21T23:06:36.246Z,9.63
2019-04-21T23:09:09.021Z,9.33
2019-04-21T23:11:43.719Z,10.47
2019-04-21T23:14:13.171Z,9.23
2019-04-21T23:16:45.481Z,9.00
2019-04-21T23:19:31.316Z,11.13
2019-04-21T23:22:03.831Z,10.60
2019-04-21T23:24:41.780Z,9.03
2019-04-21T23:27:05.474Z,9.30
2019-04-21T23:29:51.036Z,8.20
2019-04-21T23:32:08.514Z,8.50
2019-04-21T23:34:26.587Z,6.80
2019-04-21T23:37:03.190Z,8.93
2019-04-21T23:39:30.191Z,8.57
2019-04-21T23:41:59.529Z,7.90
2019-04-21T23:44:33.878Z,7.23
2019-04-21T23:47:05.326Z,8.07
2019-04-21T23:49:42.580Z,9.20
2019-04-21T23:52:09.031Z,7.10
2019-04-21T23:54:36.027Z,7.80
2019-04-21T23:57:14.381Z,8.70
2019-04-21T23:59:42.193Z,8.80
